Time;durP1;ratioP1;P1;durP2;ratioP2;P2;SDS_P1;SDS_P2;PMS_P1;PMS_P2;Temp;Humidity;BMP_temperature;BMP_pressure;BME280_temperature;BME280_humidity;BME280_pressure;Samples;Min_cycle;Max_cycle;Signal;HPM_P1;HPM_P2
2022/09/07 00:00:28;;;;;;;1.88;1.70;;;;;;;;;;4487173;28;20038;-70
2022/09/07 00:02:39;;;;;;;2.00;1.80;;;;;;;;;;4484881;28;20043;-69
2022/09/07 00:04:49;;;;;;;1.80;1.70;;;;;;;;;;4486251;28;20658;-70
2022/09/07 00:07:00;;;;;;;2.17;1.95;;;;;;;;;;4487543;28;20725;-69
2022/09/07 00:09:10;;;;;;;2.67;2.08;;;;;;;;;;4488125;28;20725;-70
2022/09/07 00:11:21;;;;;;;2.08;1.88;;;;;;;;;;4487207;28;20060;-69
2022/09/07 00:13:34;;;;;;;2.33;1.80;;;;;;;;;;4488991;28;20034;-69
2022/09/07 00:15:45;;;;;;;2.20;1.90;;;;;;;;;;4485937;28;20046;-69
2022/09/07 00:17:55;;;;;;;2.17;1.60;;;;;;;;;;4486083;28;20046;-69
2022/09/07 00:20:07;;;;;;;1.85;1.73;;;;;;;;;;4489117;28;20088;-69
2022/09/07 00:22:18;;;;;;;2.47;1.83;;;;;;;;;;4486238;28;20038;-69
2022/09/07 00:24:28;;;;;;;2.75;1.92;;;;;;;;;;4489215;28;20039;-69
2022/09/07 00:26:39;;;;;;;2.03;1.80;;;;;;;;;;4486770;28;20034;-69
2022/09/07 00:28:49;;;;;;;2.10;1.77;;;;;;;;;;4486919;28;20929;-72
2022/09/07 00:31:00;;;;;;;2.45;1.70;;;;;;;;;;4486643;28;20158;-72
2022/09/07 00:33:11;;;;;;;1.95;1.60;;;;;;;;;;4485154;28;20043;-71
2022/09/07 00:35:21;;;;;;;2.20;2.00;;;;;;;;;;4485186;28;20040;-72
2022/09/07 00:37:32;;;;;;;2.38;1.77;;;;;;;;;;4483880;28;20053;-71
2022/09/07 00:39:42;;;;;;;2.00;1.80;;;;;;;;;;4485662;28;20089;-72
2022/09/07 00:41:53;;;;;;;3.33;1.80;;;;;;;;;;4484597;28;20046;-70
2022/09/07 00:44:41;;;;;;;2.03;1.63;;;;;;;;;;4488461;28;20026;-71
2022/09/07 00:46:51;;;;;;;2.13;1.70;;;;;;;;;;4486947;28;20026;-72
2022/09/07 00:49:25;;;;;;;1.60;1.50;;;;;;;;;;4485664;28;20042;-72
2022/09/07 00:51:40;;;;;;;1.90;1.80;;;;;;;;;;4487531;28;20046;-71
2022/09/07 00:53:57;;;;;;;1.88;1.67;;;;;;;;;;4491405;28;20112;-71
2022/09/07 00:56:07;;;;;;;2.60;1.70;;;;;;;;;;4487269;28;20503;-70
2022/09/07 00:58:19;;;;;;;1.85;1.70;;;;;;;;;;4485428;28;20038;-71
2022/09/07 01:00:30;;;;;;;1.80;1.67;;;;;;;;;;4487313;28;20919;-71
2022/09/07 01:02:41;;;;;;;2.25;1.80;;;;;;;;;;4486730;28;20125;-71
2022/09/07 01:05:01;;;;;;;1.70;1.60;;;;;;;;;;4484217;28;20030;-71
2022/09/07 01:07:12;;;;;;;2.20;1.90;;;;;;;;;;4486161;28;20105;-71
2022/09/07 01:09:24;;;;;;;1.70;1.60;;;;;;;;;;4487097;28;20571;-71
2022/09/07 01:11:36;;;;;;;2.42;1.88;;;;;;;;;;4486353;28;20117;-70
2022/09/07 01:13:48;;;;;;;2.15;1.80;;;;;;;;;;4484363;28;20053;-72
2022/09/07 01:16:09;;;;;;;1.83;1.73;;;;;;;;;;4484267;28;20619;-72
2022/09/07 01:18:26;;;;;;;2.58;2.00;;;;;;;;;;4481544;28;20030;-72
2022/09/07 01:20:51;;;;;;;1.52;1.42;;;;;;;;;;4486165;28;20026;-73
2022/09/07 01:23:10;;;;;;;1.60;1.40;;;;;;;;;;4488517;28;20572;-74
2022/09/07 01:25:40;;;;;;;2.08;1.45;;;;;;;;;;4485628;28;20521;-74
2022/09/07 01:28:02;;;;;;;1.73;1.25;;;;;;;;;;4486499;28;20116;-75
2022/09/07 01:30:15;;;;;;;1.90;1.30;;;;;;;;;;4487134;28;20037;-75
2022/09/07 01:32:45;;;;;;;1.50;1.23;;;;;;;;;;4486116;28;20022;-75
2022/09/07 01:34:55;;;;;;;1.40;1.10;;;;;;;;;;4487426;28;20057;-75
2022/09/07 01:37:21;;;;;;;1.17;1.00;;;;;;;;;;4487025;28;20033;-76
2022/09/07 01:40:01;;;;;;;1.67;1.00;;;;;;;;;;4484547;28;20030;-76
2022/09/07 01:42:14;;;;;;;1.30;0.90;;;;;;;;;;4488642;28;20045;-76
2022/09/07 01:44:41;;;;;;;1.35;1.00;;;;;;;;;;4487734;28;20233;-76
2022/09/07 01:46:55;;;;;;;0.80;0.80;;;;;;;;;;4487271;28;20128;-76
2022/09/07 01:49:14;;;;;;;1.23;1.10;;;;;;;;;;4486102;28;20033;-76
2022/09/07 01:51:29;;;;;;;1.50;1.00;;;;;;;;;;4486049;28;20045;-76
2022/09/07 01:53:53;;;;;;;1.52;0.90;;;;;;;;;;4486049;28;20666;-74
2022/09/07 01:56:09;;;;;;;0.95;0.80;;;;;;;;;;4487823;28;20117;-74
2022/09/07 01:58:21;;;;;;;1.10;0.87;;;;;;;;;;4487200;28;20871;-73
2022/09/07 02:00:33;;;;;;;2.75;0.90;;;;;;;;;;4485866;28;20631;-74
2022/09/07 02:02:51;;;;;;;1.00;0.80;;;;;;;;;;4485296;28;21338;-74
2022/09/07 02:05:12;;;;;;;0.95;0.70;;;;;;;;;;4484274;28;20085;-74
2022/09/07 02:07:48;;;;;;;0.90;0.75;;;;;;;;;;4485200;28;20034;-74
2022/09/07 02:10:26;;;;;;;1.88;0.70;;;;;;;;;;4472842;28;20070;-74
2022/09/07 02:13:00;;;;;;;0.75;0.60;;;;;;;;;;4481388;28;20137;-74
2022/09/07 02:15:27;;;;;;;2.05;0.70;;;;;;;;;;4484622;28;20050;-74
2022/09/07 02:17:41;;;;;;;1.33;0.80;;;;;;;;;;4475503;28;20058;-73
2022/09/07 02:19:54;;;;;;;1.00;0.60;;;;;;;;;;4486464;28;20039;-73
2022/09/07 02:22:10;;;;;;;1.15;0.65;;;;;;;;;;4485890;28;20113;-74
2022/09/07 02:24:24;;;;;;;0.95;0.60;;;;;;;;;;4486314;28;20022;-74
2022/09/07 02:26:38;;;;;;;0.68;0.57;;;;;;;;;;4491570;28;20057;-74
2022/09/07 02:28:49;;;;;;;1.25;0.60;;;;;;;;;;4489987;28;21226;-74
2022/09/07 02:31:00;;;;;;;0.88;0.60;;;;;;;;;;4486692;28;20043;-73
2022/09/07 02:33:10;;;;;;;0.70;0.50;;;;;;;;;;4482449;28;20039;-71
2022/09/07 02:35:21;;;;;;;1.17;0.70;;;;;;;;;;4487065;28;20836;-69
2022/09/07 02:37:32;;;;;;;0.93;0.70;;;;;;;;;;4484158;28;20353;-69
2022/09/07 02:39:43;;;;;;;1.38;0.63;;;;;;;;;;4487189;28;20788;-69
2022/09/07 02:41:53;;;;;;;0.80;0.70;;;;;;;;;;4483876;28;20038;-68
2022/09/07 02:44:19;;;;;;;1.50;0.98;;;;;;;;;;4484965;28;20037;-69
2022/09/07 02:47:07;;;;;;;1.58;1.00;;;;;;;;;;4499232;28;20726;-69
2022/09/07 02:49:45;;;;;;;1.10;0.70;;;;;;;;;;4499478;28;20499;-70
2022/09/07 02:52:20;;;;;;;0.98;0.80;;;;;;;;;;4487204;28;20034;-69
2022/09/07 02:55:01;;;;;;;1.05;0.80;;;;;;;;;;4484516;28;20038;-70
2022/09/07 02:57:31;;;;;;;1.58;0.70;;;;;;;;;;4486089;28;20070;-71
2022/09/07 03:00:15;;;;;;;1.58;0.75;;;;;;;;;;4485069;28;20035;-70
2022/09/07 03:02:42;;;;;;;0.70;0.70;;;;;;;;;;4465003;28;20835;-71
2022/09/07 03:05:02;;;;;;;1.13;0.80;;;;;;;;;;4486378;28;20031;-70
2022/09/07 03:07:15;;;;;;;1.27;0.90;;;;;;;;;;4486262;28;20813;-70
2022/09/07 03:09:29;;;;;;;1.05;0.70;;;;;;;;;;4467194;28;20522;-71
2022/09/07 03:11:39;;;;;;;0.77;0.70;;;;;;;;;;4486242;28;20030;-71
2022/09/07 03:13:50;;;;;;;0.88;0.60;;;;;;;;;;4484638;28;20587;-71
2022/09/07 03:16:00;;;;;;;0.80;0.70;;;;;;;;;;4484551;28;20030;-71
2022/09/07 03:18:11;;;;;;;1.25;0.60;;;;;;;;;;4485399;28;20077;-71
2022/09/07 03:20:22;;;;;;;1.48;0.90;;;;;;;;;;4484117;28;20062;-72
2022/09/07 03:22:33;;;;;;;1.33;0.80;;;;;;;;;;4486439;28;20038;-72
2022/09/07 03:24:44;;;;;;;1.17;0.75;;;;;;;;;;4484594;28;20034;-71
2022/09/07 03:26:54;;;;;;;1.33;0.82;;;;;;;;;;4488095;28;20529;-71
2022/09/07 03:29:05;;;;;;;1.42;0.80;;;;;;;;;;4484504;28;20042;-71
2022/09/07 03:31:16;;;;;;;2.20;0.95;;;;;;;;;;4467246;28;20041;-71
2022/09/07 03:33:26;;;;;;;0.88;0.70;;;;;;;;;;4485248;28;20610;-70
2022/09/07 03:35:37;;;;;;;1.40;0.82;;;;;;;;;;4489687;28;20045;-71
2022/09/07 03:37:47;;;;;;;1.42;0.90;;;;;;;;;;4484834;28;20026;-70
2022/09/07 03:39:57;;;;;;;1.05;0.95;;;;;;;;;;4484242;28;20053;-69
2022/09/07 03:42:08;;;;;;;1.65;0.77;;;;;;;;;;4482547;28;20053;-70
2022/09/07 03:44:18;;;;;;;1.52;0.80;;;;;;;;;;4483773;28;20038;-71
2022/09/07 03:46:29;;;;;;;1.35;0.70;;;;;;;;;;4483195;28;20110;-70
2022/09/07 03:48:40;;;;;;;0.85;0.77;;;;;;;;;;4484084;28;20033;-71
2022/09/07 03:51:07;;;;;;;1.20;0.90;;;;;;;;;;4484460;28;20089;-71
2022/09/07 03:53:18;;;;;;;1.73;0.80;;;;;;;;;;4481540;28;20086;-71
2022/09/07 03:55:28;;;;;;;1.90;0.80;;;;;;;;;;4486892;28;20148;-71
2022/09/07 03:57:39;;;;;;;0.80;0.70;;;;;;;;;;4483850;28;20497;-71
2022/09/07 03:59:49;;;;;;;1.35;0.95;;;;;;;;;;4486337;28;20034;-71
2022/09/07 04:02:00;;;;;;;1.23;1.13;;;;;;;;;;4482958;28;20556;-71
2022/09/07 04:04:12;;;;;;;1.00;0.73;;;;;;;;;;4485271;28;20718;-71
2022/09/07 04:06:22;;;;;;;0.65;0.63;;;;;;;;;;4484317;28;20101;-71
2022/09/07 04:08:34;;;;;;;1.00;0.80;;;;;;;;;;4482440;28;20101;-72
2022/09/07 04:10:44;;;;;;;1.10;0.80;;;;;;;;;;4485367;28;20026;-72
2022/09/07 04:12:55;;;;;;;0.93;0.77;;;;;;;;;;4484634;28;20037;-72
2022/09/07 04:15:06;;;;;;;1.13;0.70;;;;;;;;;;4487293;28;20047;-72
2022/09/07 04:17:16;;;;;;;1.38;0.73;;;;;;;;;;4485932;28;20046;-70
2022/09/07 04:19:28;;;;;;;1.42;0.70;;;;;;;;;;4484027;28;20499;-72
2022/09/07 04:21:39;;;;;;;1.10;0.88;;;;;;;;;;4474908;28;20050;-72
2022/09/07 04:23:50;;;;;;;1.95;0.70;;;;;;;;;;4489910;28;20049;-72
2022/09/07 04:26:00;;;;;;;1.77;0.60;;;;;;;;;;4487312;28;20026;-72
2022/09/07 04:28:10;;;;;;;1.20;0.50;;;;;;;;;;4488289;28;20065;-72
2022/09/07 04:30:21;;;;;;;1.30;0.70;;;;;;;;;;4486265;28;20093;-73
2022/09/07 04:32:31;;;;;;;1.30;0.70;;;;;;;;;;4484687;28;20031;-73
2022/09/07 04:34:42;;;;;;;0.60;0.60;;;;;;;;;;4486809;28;20085;-73
2022/09/07 04:36:52;;;;;;;0.77;0.70;;;;;;;;;;4486677;28;20038;-73
2022/09/07 04:39:03;;;;;;;1.02;0.70;;;;;;;;;;4484048;28;20193;-73
2022/09/07 04:41:16;;;;;;;0.75;0.70;;;;;;;;;;4485734;28;20096;-73
2022/09/07 04:43:28;;;;;;;1.42;0.80;;;;;;;;;;4485891;28;20149;-73
2022/09/07 04:45:39;;;;;;;1.33;0.57;;;;;;;;;;4486006;28;20042;-72
2022/09/07 04:47:49;;;;;;;1.58;0.80;;;;;;;;;;4487206;28;20736;-73
2022/09/07 04:50:00;;;;;;;1.25;0.60;;;;;;;;;;4483828;28;20038;-73
2022/09/07 04:52:10;;;;;;;1.27;0.60;;;;;;;;;;4484686;28;20937;-72
2022/09/07 04:54:21;;;;;;;0.90;0.70;;;;;;;;;;4485649;28;20149;-74
2022/09/07 04:56:31;;;;;;;1.30;0.82;;;;;;;;;;4484593;28;20057;-74
2022/09/07 04:58:42;;;;;;;0.90;0.70;;;;;;;;;;4486439;28;20045;-74
2022/09/07 05:00:52;;;;;;;1.27;0.70;;;;;;;;;;4485059;28;20374;-74
2022/09/07 05:03:03;;;;;;;1.65;0.70;;;;;;;;;;4485179;28;20599;-74
2022/09/07 05:05:13;;;;;;;0.65;0.52;;;;;;;;;;4485537;28;20554;-74
2022/09/07 05:07:24;;;;;;;0.73;0.52;;;;;;;;;;4485986;28;20038;-74
2022/09/07 05:09:34;;;;;;;0.98;0.70;;;;;;;;;;4486690;28;20043;-74
2022/09/07 05:11:45;;;;;;;1.10;0.70;;;;;;;;;;4484233;28;20663;-74
2022/09/07 05:13:59;;;;;;;1.80;0.70;;;;;;;;;;4472299;28;20197;-74
2022/09/07 05:16:22;;;;;;;1.25;0.70;;;;;;;;;;4486179;28;20150;-74
2022/09/07 05:18:33;;;;;;;1.02;0.70;;;;;;;;;;4486300;28;20042;-74
2022/09/07 05:20:43;;;;;;;1.33;0.80;;;;;;;;;;4486807;28;20042;-74
2022/09/07 05:22:58;;;;;;;1.77;0.73;;;;;;;;;;4484836;28;20046;-73
2022/09/07 05:25:08;;;;;;;1.38;0.80;;;;;;;;;;4484686;28;20022;-73
2022/09/07 05:27:19;;;;;;;0.80;0.80;;;;;;;;;;4486656;28;20854;-73
2022/09/07 05:29:30;;;;;;;0.70;0.70;;;;;;;;;;4486370;28;20631;-70
2022/09/07 05:31:40;;;;;;;0.93;0.73;;;;;;;;;;4483801;28;20027;-74
2022/09/07 05:33:52;;;;;;;0.75;0.75;;;;;;;;;;4483885;28;20046;-74
2022/09/07 05:36:04;;;;;;;1.00;0.90;;;;;;;;;;4486502;28;20041;-73
2022/09/07 05:38:14;;;;;;;1.38;0.90;;;;;;;;;;4485941;28;20110;-74
2022/09/07 05:40:25;;;;;;;1.27;0.90;;;;;;;;;;4485292;28;20045;-75
2022/09/07 05:42:36;;;;;;;1.17;0.90;;;;;;;;;;4486495;28;20030;-74
2022/09/07 05:44:46;;;;;;;1.67;0.77;;;;;;;;;;4484301;28;20101;-74
2022/09/07 05:46:57;;;;;;;1.02;0.90;;;;;;;;;;4484289;28;20050;-75
2022/09/07 05:49:07;;;;;;;1.58;0.90;;;;;;;;;;4484774;28;20060;-74
2022/09/07 05:51:18;;;;;;;1.00;0.70;;;;;;;;;;4486878;28;20042;-74
2022/09/07 05:53:29;;;;;;;1.35;0.90;;;;;;;;;;4486480;28;20051;-75
2022/09/07 05:55:39;;;;;;;0.70;0.60;;;;;;;;;;4485191;28;20115;-74
2022/09/07 05:57:50;;;;;;;1.05;0.75;;;;;;;;;;4485967;28;20049;-74
2022/09/07 06:00:00;;;;;;;0.90;0.70;;;;;;;;;;4484258;28;20041;-74
2022/09/07 06:02:13;;;;;;;1.10;0.90;;;;;;;;;;4486395;28;20057;-74
2022/09/07 06:04:24;;;;;;;1.10;0.90;;;;;;;;;;4471316;28;20042;-74
2022/09/07 06:06:37;;;;;;;1.20;0.80;;;;;;;;;;4484578;28;20026;-74
2022/09/07 06:08:49;;;;;;;1.60;0.70;;;;;;;;;;4486396;28;20030;-74
2022/09/07 06:11:15;;;;;;;1.00;0.90;;;;;;;;;;4486560;28;20097;-74
2022/09/07 06:13:25;;;;;;;1.40;0.93;;;;;;;;;;4486948;28;20105;-74
2022/09/07 06:15:36;;;;;;;1.15;1.05;;;;;;;;;;4484593;28;20042;-75
2022/09/07 06:17:47;;;;;;;2.58;1.10;;;;;;;;;;4487276;28;20145;-75
2022/09/07 06:19:57;;;;;;;1.30;1.00;;;;;;;;;;4485369;28;20034;-74
2022/09/07 06:22:08;;;;;;;1.27;0.90;;;;;;;;;;4484893;28;20491;-75
2022/09/07 06:24:18;;;;;;;2.58;1.10;;;;;;;;;;4486917;28;20121;-74
2022/09/07 06:26:29;;;;;;;1.40;1.00;;;;;;;;;;4485033;28;20065;-75
2022/09/07 06:28:41;;;;;;;1.38;1.10;;;;;;;;;;4484398;28;20039;-74
2022/09/07 06:30:52;;;;;;;1.10;0.80;;;;;;;;;;4490055;28;20117;-74
2022/09/07 06:33:02;;;;;;;1.73;0.93;;;;;;;;;;4484945;28;20524;-74
2022/09/07 06:35:13;;;;;;;1.70;1.00;;;;;;;;;;4485539;28;20035;-75
2022/09/07 06:37:24;;;;;;;0.77;0.77;;;;;;;;;;4486460;28;20038;-74
2022/09/07 06:39:35;;;;;;;1.90;1.02;;;;;;;;;;4483896;28;20038;-74
2022/09/07 06:41:45;;;;;;;2.33;1.10;;;;;;;;;;4485770;28;20081;-70
2022/09/07 06:44:01;;;;;;;1.05;0.80;;;;;;;;;;4487845;28;20023;-74
2022/09/07 06:46:12;;;;;;;1.95;0.90;;;;;;;;;;4486289;28;20790;-74
2022/09/07 06:48:23;;;;;;;0.82;0.75;;;;;;;;;;4485089;28;20453;-73
2022/09/07 06:50:34;;;;;;;1.05;0.80;;;;;;;;;;4485076;28;20118;-74
2022/09/07 06:52:44;;;;;;;1.45;1.00;;;;;;;;;;4484854;28;20035;-73
2022/09/07 06:54:55;;;;;;;2.08;1.02;;;;;;;;;;4485305;28;20057;-73
2022/09/07 06:57:07;;;;;;;1.60;1.10;;;;;;;;;;4485092;28;20038;-73
2022/09/07 06:59:18;;;;;;;2.15;0.90;;;;;;;;;;4484799;28;20058;-74
2022/09/07 07:01:29;;;;;;;0.95;0.85;;;;;;;;;;4485596;28;20144;-73
2022/09/07 07:03:40;;;;;;;1.98;0.70;;;;;;;;;;4485753;28;20608;-72
2022/09/07 07:05:52;;;;;;;0.95;0.70;;;;;;;;;;4474136;28;20035;-72
2022/09/07 07:08:03;;;;;;;0.98;0.65;;;;;;;;;;4485134;28;20048;-73
2022/09/07 07:10:13;;;;;;;1.33;1.00;;;;;;;;;;4484708;28;20044;-73
2022/09/07 07:12:24;;;;;;;1.95;0.90;;;;;;;;;;4482869;28;20543;-73
2022/09/07 07:14:34;;;;;;;1.10;0.65;;;;;;;;;;4484978;28;20074;-73
2022/09/07 07:16:45;;;;;;;1.08;0.98;;;;;;;;;;4484692;28;20039;-72
2022/09/07 07:18:56;;;;;;;1.30;0.80;;;;;;;;;;4483329;28;20038;-72
2022/09/07 07:21:09;;;;;;;0.60;0.60;;;;;;;;;;4485948;28;20441;-71
2022/09/07 07:23:19;;;;;;;1.55;0.90;;;;;;;;;;4484882;28;20851;-72
2022/09/07 07:25:30;;;;;;;0.95;0.80;;;;;;;;;;4485867;28;20027;-72
2022/09/07 07:27:41;;;;;;;1.27;0.65;;;;;;;;;;4483393;28;20050;-72
2022/09/07 07:29:52;;;;;;;1.00;0.90;;;;;;;;;;4484632;28;20145;-72
2022/09/07 07:32:03;;;;;;;1.10;1.00;;;;;;;;;;4483857;28;20038;-70
2022/09/07 07:34:14;;;;;;;1.85;0.90;;;;;;;;;;4484362;28;20089;-71
2022/09/07 07:36:25;;;;;;;1.30;1.13;;;;;;;;;;4483158;28;20034;-72
2022/09/07 07:38:36;;;;;;;2.75;1.10;;;;;;;;;;4482526;28;20658;-72
2022/09/07 07:40:52;;;;;;;1.13;0.80;;;;;;;;;;4481059;28;20034;-73
2022/09/07 07:43:02;;;;;;;0.70;0.65;;;;;;;;;;4481962;28;20587;-72
2022/09/07 07:45:13;;;;;;;1.83;0.90;;;;;;;;;;4483566;28;20077;-71
2022/09/07 07:47:24;;;;;;;1.30;0.90;;;;;;;;;;4484673;28;20034;-72
2022/09/07 07:49:34;;;;;;;0.80;0.80;;;;;;;;;;4485786;28;20412;-72
2022/09/07 07:51:45;;;;;;;1.00;0.90;;;;;;;;;;4486311;28;20559;-72
2022/09/07 07:53:55;;;;;;;1.05;0.90;;;;;;;;;;4488123;28;20142;-70
2022/09/07 07:56:06;;;;;;;0.95;0.80;;;;;;;;;;4486994;28;20062;-72
2022/09/07 07:58:17;;;;;;;1.02;0.73;;;;;;;;;;4486390;28;20030;-72
2022/09/07 08:00:28;;;;;;;1.05;0.90;;;;;;;;;;4487536;28;20037;-71
2022/09/07 08:02:38;;;;;;;1.42;0.70;;;;;;;;;;4487288;28;20044;-72
2022/09/07 08:04:49;;;;;;;0.88;0.80;;;;;;;;;;4485342;28;20034;-72
2022/09/07 08:07:00;;;;;;;0.68;0.65;;;;;;;;;;4484228;28;20018;-72
2022/09/07 08:09:11;;;;;;;1.23;0.60;;;;;;;;;;4485842;28;20043;-72
2022/09/07 08:11:22;;;;;;;0.82;0.65;;;;;;;;;;4485481;28;20043;-72
2022/09/07 08:13:33;;;;;;;0.73;0.70;;;;;;;;;;4488283;28;20042;-72
2022/09/07 08:15:44;;;;;;;0.75;0.63;;;;;;;;;;4487348;28;20030;-72
2022/09/07 08:17:56;;;;;;;1.23;0.65;;;;;;;;;;4488326;28;20034;-72
2022/09/07 08:20:06;;;;;;;0.80;0.70;;;;;;;;;;4487926;28;20042;-72
2022/09/07 08:22:17;;;;;;;1.13;0.60;;;;;;;;;;4486620;28;20030;-72
2022/09/07 08:24:27;;;;;;;0.60;0.60;;;;;;;;;;4485000;28;20039;-72
2022/09/07 08:26:38;;;;;;;1.63;0.63;;;;;;;;;;4486350;28;20066;-72
2022/09/07 08:28:48;;;;;;;0.60;0.60;;;;;;;;;;4485923;28;20050;-71
2022/09/07 08:31:06;;;;;;;0.82;0.55;;;;;;;;;;4485804;28;20034;-72
2022/09/07 08:33:16;;;;;;;0.75;0.70;;;;;;;;;;4486171;28;20136;-72
2022/09/07 08:35:27;;;;;;;0.88;0.65;;;;;;;;;;4484944;28;20555;-71
2022/09/07 08:37:37;;;;;;;0.73;0.60;;;;;;;;;;4487768;28;20258;-71
2022/09/07 08:39:47;;;;;;;0.50;0.50;;;;;;;;;;4486133;28;20026;-70
2022/09/07 08:42:39;;;;;;;0.40;0.40;;;;;;;;;;4484288;28;32636;-71
2022/09/07 08:45:03;;;;;;;0.60;0.50;;;;;;;;;;4481257;28;20043;-71
2022/09/07 08:47:22;;;;;;;0.52;0.52;;;;;;;;;;4487798;28;20038;-72
2022/09/07 08:49:47;;;;;;;0.60;0.60;;;;;;;;;;4488646;28;20169;-73
2022/09/07 08:52:23;;;;;;;0.70;0.70;;;;;;;;;;4476162;28;20022;-74
2022/09/07 08:54:34;;;;;;;0.50;0.50;;;;;;;;;;4482495;28;20163;-74
2022/09/07 08:56:48;;;;;;;0.60;0.60;;;;;;;;;;4488521;28;20034;-71
2022/09/07 08:59:02;;;;;;;0.60;0.60;;;;;;;;;;4488988;28;21089;-71
2022/09/07 09:01:14;;;;;;;0.70;0.70;;;;;;;;;;4488631;28;20045;-72
2022/09/07 09:03:27;;;;;;;1.23;0.73;;;;;;;;;;4489181;28;20125;-71
2022/09/07 09:06:21;;;;;;;0.60;0.60;;;;;;;;;;4491942;28;20150;-72
2022/09/07 09:08:34;;;;;;;0.50;0.50;;;;;;;;;;4476574;28;20030;-71
2022/09/07 09:11:00;;;;;;;1.13;0.60;;;;;;;;;;4487649;28;20039;-71
2022/09/07 09:13:19;;;;;;;0.70;0.70;;;;;;;;;;4487047;28;20118;-71
2022/09/07 09:15:57;;;;;;;0.90;0.70;;;;;;;;;;4471464;28;20049;-71
2022/09/07 09:18:38;;;;;;;0.50;0.50;;;;;;;;;;4488723;28;20113;-71
2022/09/07 09:20:52;;;;;;;0.70;0.60;;;;;;;;;;4486187;28;20034;-71
2022/09/07 09:23:12;;;;;;;0.80;0.70;;;;;;;;;;4488352;28;20038;-71
2022/09/07 09:25:33;;;;;;;0.82;0.68;;;;;;;;;;4487576;28;20810;-71
2022/09/07 09:27:44;;;;;;;1.02;0.68;;;;;;;;;;4486992;28;20089;-71
2022/09/07 09:29:54;;;;;;;1.45;0.70;;;;;;;;;;4486888;28;20128;-72
2022/09/07 09:32:40;;;;;;;0.88;0.70;;;;;;;;;;4487357;28;20044;-71
2022/09/07 09:35:23;;;;;;;0.70;0.60;;;;;;;;;;4488387;28;20053;-71
2022/09/07 09:37:35;;;;;;;0.80;0.60;;;;;;;;;;4488084;28;20738;-71
2022/09/07 09:39:56;;;;;;;0.70;0.70;;;;;;;;;;4486083;28;20037;-71
2022/09/07 09:42:16;;;;;;;0.60;0.57;;;;;;;;;;4487958;28;20037;-71
2022/09/07 09:44:32;;;;;;;0.60;0.60;;;;;;;;;;4484813;28;20049;-71
2022/09/07 09:46:53;;;;;;;1.27;0.50;;;;;;;;;;4486115;28;20072;-71
2022/09/07 09:49:16;;;;;;;0.65;0.57;;;;;;;;;;4485081;28;20053;-71
2022/09/07 09:51:31;;;;;;;0.50;0.50;;;;;;;;;;4485670;28;20074;-71
2022/09/07 09:53:57;;;;;;;1.08;0.57;;;;;;;;;;4486385;28;20150;-71
2022/09/07 09:56:08;;;;;;;1.52;0.60;;;;;;;;;;4484970;28;20042;-71
2022/09/07 09:58:36;;;;;;;1.10;0.77;;;;;;;;;;4485704;28;21397;-72
2022/09/07 10:01:00;;;;;;;0.77;0.60;;;;;;;;;;4485699;28;20083;-72
2022/09/07 10:03:13;;;;;;;1.20;0.60;;;;;;;;;;4486394;28;20042;-74
2022/09/07 10:05:31;;;;;;;2.47;0.82;;;;;;;;;;4487622;28;20578;-71
2022/09/07 10:07:49;;;;;;;0.50;0.50;;;;;;;;;;4500583;28;20058;-73
2022/09/07 10:10:00;;;;;;;1.23;0.60;;;;;;;;;;4487076;28;20038;-73
2022/09/07 10:12:40;;;;;;;0.90;0.63;;;;;;;;;;4489302;28;20034;-74
2022/09/07 10:14:50;;;;;;;1.45;0.80;;;;;;;;;;4478288;28;20058;-73
2022/09/07 10:17:10;;;;;;;1.25;0.80;;;;;;;;;;4488029;28;21106;-74
2022/09/07 10:19:25;;;;;;;0.82;0.82;;;;;;;;;;4484792;28;20038;-73
2022/09/07 10:21:36;;;;;;;0.77;0.77;;;;;;;;;;4487001;28;20124;-73
2022/09/07 10:23:53;;;;;;;0.70;0.70;;;;;;;;;;4486044;28;24757;-73
2022/09/07 10:26:20;;;;;;;0.80;0.80;;;;;;;;;;4485289;28;20048;-72
2022/09/07 10:28:30;;;;;;;1.10;0.80;;;;;;;;;;4484610;28;20129;-72
2022/09/07 10:31:02;;;;;;;0.88;0.80;;;;;;;;;;4484984;28;24131;-72
2022/09/07 10:33:21;;;;;;;1.05;0.85;;;;;;;;;;4487075;28;20038;-72
2022/09/07 10:36:01;;;;;;;2.10;0.85;;;;;;;;;;4486015;28;20115;-73
2022/09/07 10:38:17;;;;;;;1.02;0.90;;;;;;;;;;4485768;28;20170;-73
2022/09/07 10:40:36;;;;;;;2.08;0.98;;;;;;;;;;4487850;28;20022;-72
2022/09/07 10:43:12;;;;;;;1.20;1.10;;;;;;;;;;4486890;28;20164;-71
2022/09/07 10:45:38;;;;;;;1.83;1.10;;;;;;;;;;4485059;28;20027;-71
2022/09/07 10:47:58;;;;;;;1.30;0.85;;;;;;;;;;4486793;28;20522;-71
2022/09/07 10:50:17;;;;;;;1.08;1.00;;;;;;;;;;4487265;28;20038;-73
2022/09/07 10:52:31;;;;;;;1.58;1.00;;;;;;;;;;4485065;28;20034;-73
2022/09/07 10:55:00;;;;;;;1.58;1.30;;;;;;;;;;4482704;28;20088;-72
2022/09/07 10:57:48;;;;;;;1.10;1.00;;;;;;;;;;4483561;28;20038;-72
2022/09/07 11:00:13;;;;;;;1.75;1.25;;;;;;;;;;4484186;28;20042;-72
2022/09/07 11:02:33;;;;;;;1.20;1.10;;;;;;;;;;4482312;28;20141;-71
2022/09/07 11:05:05;;;;;;;1.40;1.30;;;;;;;;;;4484499;28;20129;-71
2022/09/07 11:07:31;;;;;;;1.30;1.20;;;;;;;;;;4487926;28;20054;-70
2022/09/07 11:09:58;;;;;;;1.98;1.20;;;;;;;;;;4482681;28;20081;-70
2022/09/07 11:12:14;;;;;;;1.23;1.13;;;;;;;;;;4484675;28;20034;-70
2022/09/07 11:14:26;;;;;;;1.20;1.10;;;;;;;;;;4485583;28;20680;-70
2022/09/07 11:16:39;;;;;;;1.63;1.17;;;;;;;;;;4486781;28;20733;-71
2022/09/07 11:18:53;;;;;;;1.30;1.10;;;;;;;;;;4486484;28;20615;-72
2022/09/07 11:21:09;;;;;;;1.20;1.10;;;;;;;;;;4484617;28;20047;-72
2022/09/07 11:23:42;;;;;;;1.42;1.10;;;;;;;;;;4486764;28;20065;-72
2022/09/07 11:26:11;;;;;;;1.55;1.20;;;;;;;;;;4489256;28;20043;-71
2022/09/07 11:28:28;;;;;;;1.20;1.10;;;;;;;;;;4489518;28;20033;-71
2022/09/07 11:30:46;;;;;;;1.40;1.00;;;;;;;;;;4490409;28;20129;-71
2022/09/07 11:33:01;;;;;;;1.30;1.00;;;;;;;;;;4489375;28;20500;-69
2022/09/07 11:35:21;;;;;;;1.77;1.10;;;;;;;;;;4488930;28;20547;-71
2022/09/07 11:37:42;;;;;;;1.15;1.05;;;;;;;;;;4489257;28;20038;-70
2022/09/07 11:40:00;;;;;;;2.45;1.30;;;;;;;;;;4490284;28;20084;-70
2022/09/07 11:42:19;;;;;;;1.65;1.40;;;;;;;;;;4489187;28;20085;-70
2022/09/07 11:44:45;;;;;;;1.40;1.30;;;;;;;;;;4487368;28;20037;-69
2022/09/07 11:47:01;;;;;;;1.52;1.40;;;;;;;;;;4492063;28;20487;-71
2022/09/07 11:49:22;;;;;;;1.52;1.30;;;;;;;;;;4487289;28;20043;-70
2022/09/07 11:51:50;;;;;;;2.22;1.50;;;;;;;;;;4489853;28;21202;-70
2022/09/07 11:54:12;;;;;;;1.80;1.50;;;;;;;;;;4486430;28;20714;-71
2022/09/07 11:56:27;;;;;;;1.50;1.40;;;;;;;;;;4490648;28;20038;-71
2022/09/07 11:59:27;;;;;;;1.80;1.48;;;;;;;;;;4489957;28;20038;-71
2022/09/07 12:01:53;;;;;;;1.67;1.58;;;;;;;;;;4459417;28;20114;-70
2022/09/07 12:04:23;;;;;;;2.00;1.75;;;;;;;;;;4488922;28;20121;-69
2022/09/07 12:06:52;;;;;;;1.67;1.58;;;;;;;;;;4487176;28;21282;-71
2022/09/07 12:09:18;;;;;;;1.35;1.20;;;;;;;;;;4490050;28;21486;-71
2022/09/07 12:12:16;;;;;;;1.30;1.15;;;;;;;;;;4487311;28;20038;-71
2022/09/07 12:14:49;;;;;;;1.52;1.10;;;;;;;;;;4488402;28;20081;-71
2022/09/07 12:17:11;;;;;;;1.20;1.10;;;;;;;;;;4488452;28;20634;-71
2022/09/07 12:19:24;;;;;;;1.40;1.30;;;;;;;;;;4489174;28;20149;-70
2022/09/07 12:21:38;;;;;;;2.97;1.60;;;;;;;;;;4487285;28;20605;-72
2022/09/07 12:23:48;;;;;;;2.10;1.77;;;;;;;;;;4487650;28;20109;-70
2022/09/07 12:26:41;;;;;;;1.50;1.40;;;;;;;;;;4486924;28;21556;-71
2022/09/07 12:28:51;;;;;;;1.63;1.20;;;;;;;;;;4482156;28;20042;-71
2022/09/07 12:31:04;;;;;;;1.85;1.75;;;;;;;;;;4489161;28;20492;-71
2022/09/07 12:33:19;;;;;;;2.47;1.90;;;;;;;;;;4487381;28;20642;-71
2022/09/07 12:35:38;;;;;;;2.42;2.10;;;;;;;;;;4487820;28;20050;-71
2022/09/07 12:37:49;;;;;;;2.22;1.90;;;;;;;;;;4486874;28;20146;-71
2022/09/07 12:40:27;;;;;;;3.50;2.40;;;;;;;;;;4489104;28;20513;-69
2022/09/07 12:42:38;;;;;;;2.45;2.25;;;;;;;;;;4484766;28;20045;-70
2022/09/07 12:45:27;;;;;;;3.40;3.10;;;;;;;;;;4487966;28;20033;-71
2022/09/07 12:47:37;;;;;;;2.95;2.65;;;;;;;;;;4487095;28;20035;-71
2022/09/07 12:50:10;;;;;;;2.80;2.60;;;;;;;;;;4487590;28;20039;-71
2022/09/07 12:52:38;;;;;;;2.75;2.42;;;;;;;;;;4475037;28;20620;-71
2022/09/07 12:55:06;;;;;;;2.55;2.20;;;;;;;;;;4485883;28;20038;-71
2022/09/07 12:57:38;;;;;;;2.53;2.30;;;;;;;;;;4486838;28;20064;-72
2022/09/07 12:59:58;;;;;;;2.30;1.92;;;;;;;;;;4488190;28;20030;-71
2022/09/07 13:02:35;;;;;;;2.33;2.13;;;;;;;;;;4485961;28;20141;-71
2022/09/07 13:04:56;;;;;;;2.78;2.40;;;;;;;;;;4459603;28;20050;-71
2022/09/07 13:07:07;;;;;;;2.92;2.63;;;;;;;;;;4485746;28;20125;-71
2022/09/07 13:09:29;;;;;;;3.38;3.08;;;;;;;;;;4485205;28;20505;-71
2022/09/07 13:11:40;;;;;;;4.53;3.88;;;;;;;;;;4489916;28;20049;-71
2022/09/07 13:13:56;;;;;;;4.53;4.13;;;;;;;;;;4484852;28;20518;-72
2022/09/07 13:16:09;;;;;;;4.82;4.07;;;;;;;;;;4488699;28;20795;-71
2022/09/07 13:18:26;;;;;;;4.68;4.18;;;;;;;;;;4488040;28;20042;-72
2022/09/07 13:20:36;;;;;;;3.72;3.42;;;;;;;;;;4487494;28;20088;-71
2022/09/07 13:22:47;;;;;;;4.53;4.13;;;;;;;;;;4486100;28;20096;-71
2022/09/07 13:25:18;;;;;;;4.47;4.05;;;;;;;;;;4487584;28;20045;-72
2022/09/07 13:27:40;;;;;;;4.45;3.95;;;;;;;;;;4485515;28;20046;-72
2022/09/07 13:29:56;;;;;;;5.57;5.05;;;;;;;;;;4483532;28;20152;-72
2022/09/07 13:32:24;;;;;;;5.20;4.70;;;;;;;;;;4483731;28;20586;-71
2022/09/07 13:34:34;;;;;;;5.07;4.63;;;;;;;;;;4484586;28;20823;-71
2022/09/07 13:36:47;;;;;;;5.40;4.90;;;;;;;;;;4484052;28;20722;-71
2022/09/07 13:38:57;;;;;;;5.53;5.00;;;;;;;;;;4499710;28;20579;-71